createdAt,value
2018-07-16T00:00:25.442Z,99391.08
2018-07-16T00:02:54.601Z,99383.16
2018-07-16T00:05:23.788Z,99387.75
2018-07-16T00:07:52.997Z,99392.38
2018-07-16T00:10:21.989Z,99391.05
2018-07-16T00:12:51.256Z,99385.88
2018-07-16T00:15:20.389Z,99390.47
2018-07-16T00:17:49.686Z,99383.41
2018-07-16T00:20:18.892Z,99388.85
2018-07-16T00:22:48.086Z,99383.19
2018-07-16T00:25:18.010Z,99381.86
2018-07-16T00:27:47.305Z,99379.86
2018-07-16T00:30:16.497Z,99380.67
2018-07-16T00:32:45.698Z,99381.73
2018-07-16T00:35:14.884Z,99386.39
2018-07-16T00:37:44.122Z,99382.03
2018-07-16T00:40:13.289Z,99384.23
2018-07-16T00:42:42.482Z,99387.55
2018-07-16T00:45:11.689Z,99385.38
2018-07-16T00:47:40.885Z,99392.20
2018-07-16T00:50:10.128Z,99396.56
2018-07-16T00:52:39.285Z,99391.99
2018-07-16T00:55:08.282Z,99392.59
2018-07-16T00:57:37.481Z,99396.69
2018-07-16T01:00:06.679Z,99392.33
2018-07-16T01:02:35.791Z,99395.28
2018-07-16T01:05:04.986Z,99395.86
2018-07-16T01:07:34.179Z,99394.55
2018-07-16T01:10:03.078Z,99398.56
2018-07-16T01:12:31.806Z,99396.95
2018-07-16T01:15:00.506Z,99387.99
2018-07-16T01:17:29.213Z,99381.77
2018-07-16T01:19:57.942Z,99389.38
2018-07-16T01:22:26.630Z,99385.30
2018-07-16T01:24:55.336Z,99386.39
2018-07-16T01:27:24.046Z,99380.70
2018-07-16T01:29:52.737Z,99376.36
2018-07-16T01:32:21.456Z,99381.82
2018-07-16T01:34:50.634Z,99373.44
2018-07-16T01:37:19.900Z,99379.16
2018-07-16T01:39:49.037Z,99386.52
2018-07-16T01:42:18.329Z,99382.73
2018-07-16T01:44:47.569Z,99386.27
2018-07-16T01:47:16.626Z,99386.81
2018-07-16T01:49:45.878Z,99390.63
2018-07-16T01:52:15.130Z,99395.25
2018-07-16T01:54:44.338Z,99412.66
2018-07-16T01:57:13.562Z,99408.61
2018-07-16T01:59:42.821Z,99416.22
2018-07-16T02:02:12.013Z,99407.27
2018-07-16T02:04:41.114Z,99404.55
2018-07-16T02:07:10.304Z,99403.73
2018-07-16T02:09:39.649Z,99411.56
2018-07-16T02:12:08.889Z,99414.53
2018-07-16T02:14:38.388Z,99419.97
2018-07-16T02:17:07.513Z,99422.41
2018-07-16T02:19:36.715Z,99418.05
2018-07-16T02:22:05.941Z,99417.77
2018-07-16T02:24:35.102Z,99410.43
2018-07-16T02:27:04.309Z,99409.62
2018-07-16T02:29:33.789Z,99412.86
2018-07-16T02:32:02.803Z,99410.40
2018-07-16T02:34:32.053Z,99410.42
2018-07-16T02:37:01.242Z,99409.88
2018-07-16T02:39:30.379Z,99410.72
2018-07-16T02:41:59.435Z,99412.64
2018-07-16T02:44:28.522Z,99406.42
2018-07-16T02:46:57.733Z,99411.58
2018-07-16T02:49:26.444Z,99412.92
2018-07-16T02:51:55.165Z,99405.89
2018-07-16T02:54:23.966Z,99406.11
2018-07-16T02:56:52.679Z,99412.12
2018-07-16T02:59:21.422Z,99410.45
2018-07-16T03:01:50.148Z,99406.91
2018-07-16T03:04:18.851Z,99415.33
2018-07-16T03:06:47.591Z,99411.52
2018-07-16T03:09:16.302Z,99415.88
2018-07-16T03:11:45.045Z,99412.58
2018-07-16T03:14:13.860Z,99408.22
2018-07-16T03:16:43.152Z,99410.38
2018-07-16T03:19:12.457Z,99410.62
2018-07-16T03:21:41.663Z,99409.80
2018-07-16T03:24:10.899Z,99412.45
2018-07-16T03:26:40.054Z,99408.60
2018-07-16T03:29:09.149Z,99416.18
2018-07-16T03:31:37.853Z,99415.88
2018-07-16T03:34:06.598Z,99412.68
2018-07-16T03:36:35.597Z,99406.98
2018-07-16T03:39:05.057Z,99412.67
2018-07-16T03:41:33.810Z,99406.64
2018-07-16T03:44:02.580Z,99399.14
2018-07-16T03:46:31.353Z,99405.02
2018-07-16T03:49:00.050Z,99405.31
2018-07-16T03:51:28.773Z,99402.45
2018-07-16T03:53:57.477Z,99396.18
2018-07-16T03:56:26.205Z,99398.67
2018-07-16T03:58:54.898Z,99400.48
2018-07-16T04:01:23.587Z,99397.88
2018-07-16T04:03:52.265Z,99395.81
2018-07-16T04:06:20.957Z,99390.16
2018-07-16T04:08:49.689Z,99394.38
2018-07-16T04:11:18.413Z,99391.83
2018-07-16T04:13:47.138Z,99397.53
2018-07-16T04:16:15.837Z,99395.23
2018-07-16T04:18:44.585Z,99391.00
2018-07-16T04:21:13.333Z,99386.19
2018-07-16T04:23:42.020Z,99384.70
2018-07-16T04:26:10.721Z,99380.64
2018-07-16T04:28:40.218Z,99383.97
2018-07-16T04:31:08.918Z,99383.27
2018-07-16T04:33:37.645Z,99382.02
2018-07-16T04:36:06.335Z,99380.74
2018-07-16T04:38:35.066Z,99380.98
2018-07-16T04:41:03.882Z,99382.34
2018-07-16T04:43:32.925Z,99380.44
2018-07-16T04:46:02.139Z,99387.19
2018-07-16T04:48:31.254Z,99387.81
2018-07-16T04:51:00.159Z,99390.41
2018-07-16T04:53:29.254Z,99394.91
2018-07-16T04:55:58.148Z,99399.23
2018-07-16T04:58:27.175Z,99391.36
2018-07-16T05:00:55.903Z,99387.23
2018-07-16T05:03:25.238Z,99389.63
2018-07-16T05:05:54.398Z,99395.60
2018-07-16T05:08:23.117Z,99392.25
2018-07-16T05:10:52.150Z,99392.83
2018-07-16T05:13:21.238Z,99394.61
2018-07-16T05:15:50.523Z,99397.53
2018-07-16T05:18:19.565Z,99390.31
2018-07-16T05:20:48.622Z,99393.20
2018-07-16T05:23:17.821Z,99390.41
2018-07-16T05:25:47.129Z,99378.98
2018-07-16T05:28:16.412Z,99390.06
2018-07-16T05:30:45.517Z,99381.19
2018-07-16T05:33:14.813Z,99379.23
2018-07-16T05:35:44.121Z,99385.85
2018-07-16T05:38:13.449Z,99391.31
2018-07-16T05:40:43.007Z,99388.98
2018-07-16T05:43:12.144Z,99384.28
2018-07-16T05:45:41.335Z,99382.00
2018-07-16T05:48:10.671Z,99386.95
2018-07-16T05:50:39.834Z,99382.76
2018-07-16T05:53:08.990Z,99382.81
2018-07-16T05:55:37.934Z,99387.39
2018-07-16T05:58:07.329Z,99386.72
2018-07-16T06:00:36.542Z,99386.90
2018-07-16T06:03:05.710Z,99388.12
2018-07-16T06:05:34.404Z,99386.44
2018-07-16T06:08:03.111Z,99380.64
2018-07-16T06:10:31.809Z,99374.48
2018-07-16T06:13:00.529Z,99372.12
2018-07-16T06:15:29.649Z,99380.66
2018-07-16T06:17:58.849Z,99376.35
2018-07-16T06:20:28.050Z,99377.91
2018-07-16T06:22:57.241Z,99375.48
2018-07-16T06:25:26.449Z,99378.72
2018-07-16T06:27:55.653Z,99369.16
2018-07-16T06:30:24.845Z,99371.16
2018-07-16T06:32:54.041Z,99362.84
2018-07-16T06:35:23.237Z,99368.02
2018-07-16T06:37:52.581Z,99366.83
2018-07-16T06:40:21.749Z,99367.67
2018-07-16T06:42:50.937Z,99371.88
2018-07-16T06:45:20.144Z,99375.53
2018-07-16T06:47:49.356Z,99373.89
2018-07-16T06:50:18.702Z,99365.13
2018-07-16T06:52:47.835Z,99360.33
2018-07-16T06:55:17.137Z,99360.56
2018-07-16T06:57:46.261Z,99363.03
2018-07-16T07:00:15.590Z,99363.46
2018-07-16T07:02:44.729Z,99350.21
2018-07-16T07:05:13.934Z,99356.09
2018-07-16T07:07:43.139Z,99351.28
2018-07-16T07:10:12.481Z,99344.06
2018-07-16T07:12:41.801Z,99345.80
2018-07-16T07:15:11.073Z,99344.52
2018-07-16T07:17:40.473Z,99345.61
2018-07-16T07:20:09.525Z,99347.34
2018-07-16T07:22:38.730Z,99350.53
2018-07-16T07:25:08.022Z,99348.09
2018-07-16T07:27:37.242Z,99345.02
2018-07-16T07:30:06.426Z,99347.37
2018-07-16T07:32:35.514Z,99344.56
2018-07-16T07:35:04.920Z,99344.41
2018-07-16T07:37:34.035Z,99341.55
2018-07-16T07:40:03.258Z,99337.41
2018-07-16T07:42:32.798Z,99337.59
2018-07-16T07:45:01.934Z,99340.86
2018-07-16T07:47:31.260Z,99339.88
2018-07-16T07:50:00.421Z,99331.29
2018-07-16T07:52:29.106Z,99323.10
2018-07-16T07:54:58.180Z,99321.47
2018-07-16T07:57:27.193Z,99322.59
2018-07-16T07:59:56.428Z,99320.79
2018-07-16T08:02:25.590Z,99322.50
2018-07-16T08:04:54.780Z,99323.46
2018-07-16T08:07:23.981Z,99314.72
2018-07-16T08:09:53.177Z,99312.20
2018-07-16T08:12:22.458Z,99317.70
2018-07-16T08:14:51.596Z,99316.68
2018-07-16T08:17:20.890Z,99315.48
2018-07-16T08:19:50.081Z,99314.95
2018-07-16T08:22:19.268Z,99309.54
2018-07-16T08:24:48.516Z,99319.22
2018-07-16T08:27:17.465Z,99318.03
2018-07-16T08:29:46.813Z,99314.73
2018-07-16T08:32:16.010Z,99317.56
2018-07-16T08:34:45.165Z,99308.08
2018-07-16T08:37:14.405Z,99308.45
2018-07-16T08:39:43.562Z,99299.53
2018-07-16T08:42:12.835Z,99301.80
2018-07-16T08:44:41.957Z,99297.39
2018-07-16T08:47:11.261Z,99301.72
2018-07-16T08:49:40.512Z,99307.66
2018-07-16T08:52:09.657Z,99306.06
2018-07-16T08:54:38.801Z,99300.94
2018-07-16T08:57:07.824Z,99306.30
2018-07-16T08:59:36.515Z,99311.39
2018-07-16T09:02:05.246Z,99303.69
2018-07-16T09:04:34.517Z,99305.25
2018-07-16T09:07:03.780Z,99305.19
2018-07-16T09:09:32.909Z,99315.18
2018-07-16T09:12:02.115Z,99308.31
2018-07-16T09:14:31.341Z,99311.19
2018-07-16T09:17:00.627Z,99308.97
2018-07-16T09:19:29.904Z,99301.44
2018-07-16T09:21:59.450Z,99311.11
2018-07-16T09:24:28.618Z,99303.62
2018-07-16T09:26:57.849Z,99303.34
2018-07-16T09:29:27.018Z,99309.95
2018-07-16T09:31:56.205Z,99306.86
2018-07-16T09:34:25.481Z,99310.52
2018-07-16T09:36:54.608Z,99302.13
2018-07-16T09:39:23.937Z,99302.10
2018-07-16T09:41:53.108Z,99297.72
2018-07-16T09:44:22.324Z,99310.17
2018-07-16T09:46:51.508Z,99302.77
2018-07-16T09:49:21.437Z,99303.09
2018-07-16T09:51:50.753Z,99314.92
2018-07-16T09:54:19.881Z,99312.15
2018-07-16T09:56:49.006Z,99309.30
2018-07-16T09:59:18.262Z,99308.57
2018-07-16T10:01:51.507Z,99304.20
2018-07-16T10:04:20.955Z,99314.80
2018-07-16T10:06:50.105Z,99298.69
2018-07-16T10:09:19.367Z,99303.22
2018-07-16T10:11:48.492Z,99306.30
2018-07-16T10:14:17.614Z,99313.03
2018-07-16T10:16:46.927Z,99314.58
2018-07-16T10:19:16.092Z,99314.69
2018-07-16T10:21:45.331Z,99304.18
2018-07-16T10:24:14.364Z,99312.95
2018-07-16T10:26:43.385Z,99299.56
2018-07-16T10:29:12.581Z,99304.39
2018-07-16T10:31:41.829Z,99309.81
2018-07-16T10:34:11.013Z,99307.20
2018-07-16T10:36:40.174Z,99298.23
2018-07-16T10:39:09.261Z,99297.15
2018-07-16T10:41:38.560Z,99301.88
2018-07-16T10:44:07.742Z,99301.45
2018-07-16T10:46:36.906Z,99309.94
2018-07-16T10:49:05.757Z,99305.59
2018-07-16T10:51:34.971Z,99302.38
2018-07-16T10:54:04.166Z,99297.91
2018-07-16T10:56:33.383Z,99303.77
2018-07-16T10:59:02.662Z,99302.20
2018-07-16T11:01:31.861Z,99305.41
2018-07-16T11:04:01.050Z,99300.75
2018-07-16T11:06:30.252Z,99309.92
2018-07-16T11:08:59.449Z,99305.70
2018-07-16T11:11:28.677Z,99307.57
2018-07-16T11:13:57.953Z,99307.48
2018-07-16T11:16:27.005Z,99304.84
2018-07-16T11:18:56.154Z,99299.59
2018-07-16T11:21:25.390Z,99301.31
2018-07-16T11:23:54.573Z,99306.17
2018-07-16T11:26:23.846Z,99303.00
2018-07-16T11:28:53.151Z,99304.28
2018-07-16T11:31:22.328Z,99301.19
2018-07-16T11:33:51.530Z,99294.58
2018-07-16T11:36:20.765Z,99304.30
2018-07-16T11:38:50.250Z,99300.03
2018-07-16T11:41:19.429Z,99289.12
2018-07-16T11:43:48.709Z,99290.14
2018-07-16T11:46:17.977Z,99295.77
2018-07-16T11:48:47.192Z,99287.56
2018-07-16T11:51:16.336Z,99289.56
2018-07-16T11:53:46.570Z,99286.57
2018-07-16T11:56:15.745Z,99274.90
2018-07-16T11:58:44.999Z,99286.42
2018-07-16T12:01:14.518Z,99282.86
2018-07-16T12:03:43.753Z,99288.48
2018-07-16T12:06:23.645Z,99283.47
2018-07-16T12:08:53.802Z,99277.16
2018-07-16T12:11:23.193Z,99281.02
2018-07-16T12:13:52.641Z,99281.11
2018-07-16T12:16:21.930Z,99282.13
2018-07-16T12:18:51.135Z,99284.11
2018-07-16T12:21:20.333Z,99282.61
2018-07-16T12:23:49.549Z,99276.19
2018-07-16T12:26:18.725Z,99270.92
2018-07-16T12:28:47.925Z,99271.89
2018-07-16T12:31:17.121Z,99273.84
2018-07-16T12:33:46.325Z,99278.56
2018-07-16T12:36:15.558Z,99270.16
2018-07-16T12:38:44.718Z,99280.75
2018-07-16T12:41:13.913Z,99278.59
2018-07-16T12:43:43.113Z,99272.09
2018-07-16T12:46:12.467Z,99268.48
2018-07-16T12:48:41.541Z,99267.47
2018-07-16T12:51:10.702Z,99263.52
2018-07-16T12:53:39.894Z,99264.39
2018-07-16T12:56:09.100Z,99255.97
2018-07-16T12:58:38.310Z,99259.05
2018-07-16T13:01:07.502Z,99258.34
2018-07-16T13:03:36.706Z,99255.66
2018-07-16T13:06:05.884Z,99254.20
2018-07-16T13:08:35.004Z,99252.13
2018-07-16T13:11:04.265Z,99250.39
2018-07-16T13:13:33.639Z,99245.47
2018-07-16T13:16:02.822Z,99244.63
2018-07-16T13:18:32.030Z,99246.87
2018-07-16T13:21:01.306Z,99245.91
2018-07-16T13:23:30.423Z,99239.84
2018-07-16T13:25:59.729Z,99239.83
2018-07-16T13:28:29.086Z,99249.42
2018-07-16T13:30:58.381Z,99235.02
2018-07-16T13:33:27.551Z,99238.23
2018-07-16T13:35:56.699Z,99233.86
2018-07-16T13:38:25.910Z,99236.99
2018-07-16T13:40:55.077Z,99231.28
2018-07-16T13:43:24.378Z,99238.53
2018-07-16T13:45:53.829Z,99238.61
2018-07-16T13:48:22.873Z,99233.67
2018-07-16T13:50:52.102Z,99230.33
2018-07-16T13:53:21.374Z,99223.81
2018-07-16T13:55:50.675Z,99223.81
2018-07-16T13:58:20.182Z,99231.41
2018-07-16T14:00:49.242Z,99228.41
2018-07-16T14:03:18.310Z,99238.97
2018-07-16T14:05:47.474Z,99235.27
2018-07-16T14:08:16.665Z,99238.29
2018-07-16T14:10:45.869Z,99230.50
2018-07-16T14:13:15.053Z,99231.02
2018-07-16T14:15:44.300Z,99220.91
2018-07-16T14:18:13.605Z,99213.69
2018-07-16T14:20:42.864Z,99216.16
2018-07-16T14:23:12.067Z,99225.20
2018-07-16T14:25:41.260Z,99222.12
2018-07-16T14:28:10.763Z,99218.44
2018-07-16T14:30:39.881Z,99218.16
2018-07-16T14:33:09.341Z,99208.14
2018-07-16T14:35:38.466Z,99200.59
2018-07-16T14:38:07.814Z,99215.19
2018-07-16T14:40:37.106Z,99209.46
2018-07-16T14:43:06.263Z,99201.97
2018-07-16T14:45:35.424Z,99195.39
2018-07-16T14:48:04.554Z,99207.07
2018-07-16T14:50:33.931Z,99207.33
2018-07-16T14:53:03.084Z,99207.58
2018-07-16T14:55:32.243Z,99212.19
2018-07-16T14:58:01.553Z,99213.00
2018-07-16T15:00:30.861Z,99206.24
2018-07-16T15:03:00.052Z,99201.08
2018-07-16T15:05:29.277Z,99212.31
2018-07-16T15:07:58.488Z,99210.16
2018-07-16T15:10:27.653Z,99206.77
2018-07-16T15:12:56.950Z,99200.75
2018-07-16T15:15:26.133Z,99203.09
2018-07-16T15:17:55.373Z,99204.98
2018-07-16T15:20:24.731Z,99204.83
2018-07-16T15:22:53.755Z,99193.89
2018-07-16T15:25:22.950Z,99193.54
2018-07-16T15:27:52.129Z,99187.69
2018-07-16T15:30:21.374Z,99193.80
2018-07-16T15:32:50.521Z,99194.67
2018-07-16T15:35:19.765Z,99193.36
2018-07-16T15:37:48.926Z,99196.89
2018-07-16T15:40:18.126Z,99199.53
2018-07-16T15:42:47.383Z,99193.56
2018-07-16T15:45:16.535Z,99197.56
2018-07-16T15:47:45.561Z,99195.09
2018-07-16T15:50:14.709Z,99199.20
2018-07-16T15:52:43.749Z,99191.33
2018-07-16T15:55:12.744Z,99190.48
2018-07-16T15:57:41.817Z,99191.86
2018-07-16T16:00:10.690Z,99195.67
2018-07-16T16:02:39.817Z,99204.17
2018-07-16T16:05:08.985Z,99201.20
2018-07-16T16:07:38.569Z,99201.45
2018-07-16T16:10:08.508Z,99197.51
2018-07-16T16:12:37.626Z,99198.20
2018-07-16T16:15:06.818Z,99203.88
2018-07-16T16:17:35.993Z,99196.77
2018-07-16T16:20:05.201Z,99196.44
2018-07-16T16:22:34.329Z,99199.09
2018-07-16T16:25:03.620Z,99191.54
2018-07-16T16:27:32.713Z,99194.59
2018-07-16T16:30:01.982Z,99197.31
2018-07-16T16:32:31.253Z,99190.84
2018-07-16T16:35:00.185Z,99200.77
2018-07-16T16:37:29.417Z,99201.95
2018-07-16T16:39:58.469Z,99210.58
2018-07-16T16:42:27.671Z,99205.89
2018-07-16T16:44:56.914Z,99202.24
2018-07-16T16:47:26.089Z,99199.03
2018-07-16T16:49:55.383Z,99196.09
2018-07-16T16:52:24.576Z,99194.63
2018-07-16T16:54:53.779Z,99194.42
2018-07-16T16:57:23.129Z,99192.45
2018-07-16T16:59:52.179Z,99189.71
2018-07-16T17:02:20.927Z,99185.94
2018-07-16T17:04:49.653Z,99196.16
2018-07-16T17:07:18.364Z,99190.86
2018-07-16T17:09:47.126Z,99198.09
2018-07-16T17:12:15.902Z,99194.39
2018-07-16T17:14:44.742Z,99194.49
2018-07-16T17:17:13.447Z,99187.13
2018-07-16T17:19:42.189Z,99195.31
2018-07-16T17:22:10.971Z,99189.88
2018-07-16T17:24:39.866Z,99198.63
2018-07-16T17:27:08.790Z,99199.48
2018-07-16T17:29:37.491Z,99199.75
2018-07-16T17:32:06.180Z,99202.58
2018-07-16T17:34:35.049Z,99206.91
2018-07-16T17:37:03.751Z,99205.50
2018-07-16T17:39:32.450Z,99209.03
2018-07-16T17:42:01.162Z,99211.13
2018-07-16T17:44:29.864Z,99206.61
2018-07-16T17:46:58.578Z,99211.79
2018-07-16T17:49:27.291Z,99221.48
2018-07-16T17:51:56.037Z,99224.70
2018-07-16T17:54:24.857Z,99219.63
2018-07-16T17:56:53.558Z,99225.28
2018-07-16T17:59:22.298Z,99218.50
2018-07-16T18:01:51.052Z,99232.41
2018-07-16T18:04:19.786Z,99236.42
2018-07-16T18:06:48.609Z,99242.27
2018-07-16T18:09:17.337Z,99238.06
2018-07-16T18:11:46.103Z,99232.87
2018-07-16T18:14:14.797Z,99242.57
2018-07-16T18:16:43.498Z,99242.06
2018-07-16T18:19:12.266Z,99244.17
2018-07-16T18:21:41.056Z,99249.04
2018-07-16T18:24:09.884Z,99255.11
2018-07-16T18:26:38.650Z,99255.99
2018-07-16T18:29:07.405Z,99253.19
2018-07-16T18:31:36.153Z,99253.58
2018-07-16T18:34:04.937Z,99265.87
2018-07-16T18:36:33.731Z,99261.78
2018-07-16T18:39:02.709Z,99261.82
2018-07-16T18:41:31.483Z,99269.84
2018-07-16T18:44:00.194Z,99267.61
2018-07-16T18:46:28.978Z,99266.57
2018-07-16T18:48:57.805Z,99270.81
2018-07-16T18:51:26.565Z,99282.37
2018-07-16T18:53:55.388Z,99277.95
2018-07-16T18:56:24.224Z,99275.16
2018-07-16T18:58:53.008Z,99274.63
2018-07-16T19:01:21.774Z,99283.70
2018-07-16T19:03:50.564Z,99279.05
2018-07-16T19:06:19.338Z,99281.72
2018-07-16T19:08:48.132Z,99281.94
2018-07-16T19:11:16.869Z,99277.13
2018-07-16T19:13:45.660Z,99285.92
2018-07-16T19:16:14.420Z,99286.82
2018-07-16T19:18:43.174Z,99280.89
2018-07-16T19:21:11.943Z,99289.19
2018-07-16T19:23:40.852Z,99288.63
2018-07-16T19:26:09.592Z,99288.91
2018-07-16T19:28:38.347Z,99293.56
2018-07-16T19:31:07.189Z,99285.91
2018-07-16T19:33:35.960Z,99286.19
2018-07-16T19:36:04.731Z,99288.88
2018-07-16T19:38:33.753Z,99293.92
2018-07-16T19:41:02.579Z,99283.09
2018-07-16T19:43:31.334Z,99290.86
2018-07-16T19:46:00.146Z,99280.47
2018-07-16T19:48:28.992Z,99282.19
2018-07-16T19:50:57.840Z,99282.57
2018-07-16T19:53:26.570Z,99275.58
2018-07-16T19:55:55.317Z,99274.30
2018-07-16T19:58:24.241Z,99273.12
2018-07-16T20:00:53.062Z,99276.77
2018-07-16T20:03:21.865Z,99270.64
2018-07-16T20:05:50.627Z,99265.24
2018-07-16T20:08:19.467Z,99263.65
2018-07-16T20:10:48.227Z,99268.05
2018-07-16T20:13:16.963Z,99267.55
2018-07-16T20:15:45.826Z,99264.57
2018-07-16T20:18:14.483Z,99272.30
2018-07-16T20:20:52.749Z,99269.69
2018-07-16T20:23:21.549Z,99265.12
2018-07-16T20:25:51.039Z,99261.06
2018-07-16T20:28:19.777Z,99254.75
2018-07-16T20:30:49.111Z,99255.47
2018-07-16T20:33:17.846Z,99260.05
2018-07-16T20:35:46.834Z,99258.08
2018-07-16T20:38:15.585Z,99249.59
2018-07-16T20:40:44.529Z,99241.91
2018-07-16T20:43:13.270Z,99246.80
2018-07-16T20:45:42.065Z,99246.56
2018-07-16T20:48:10.902Z,99240.92
2018-07-16T20:50:39.669Z,99241.19
2018-07-16T20:53:08.574Z,99238.58
2018-07-16T20:55:37.341Z,99242.75
2018-07-16T20:58:06.107Z,99247.75
2018-07-16T21:00:35.048Z,99250.62
2018-07-16T21:03:03.795Z,99250.14
2018-07-16T21:05:32.544Z,99241.81
2018-07-16T21:08:01.298Z,99246.16
2018-07-16T21:10:30.050Z,99244.84
2018-07-16T21:12:58.791Z,99251.34
2018-07-16T21:15:27.550Z,99250.78
2018-07-16T21:17:56.305Z,99238.55
2018-07-16T21:20:25.083Z,99244.74
2018-07-16T21:22:54.996Z,99230.92
2018-07-16T21:25:23.719Z,99224.98
2018-07-16T21:27:52.533Z,99233.39
2018-07-16T21:30:21.246Z,99225.84
2018-07-16T21:32:49.966Z,99218.03
2018-07-16T21:35:18.689Z,99222.95
2018-07-16T21:37:47.410Z,99217.02
2018-07-16T21:40:16.201Z,99211.61
2018-07-16T21:42:44.930Z,99197.81
2018-07-16T21:45:13.645Z,99206.81
2018-07-16T21:47:42.360Z,99213.14
2018-07-16T21:50:11.069Z,99211.81
2018-07-16T21:52:40.034Z,99211.02
2018-07-16T21:55:08.741Z,99208.63
2018-07-16T21:57:37.565Z,99207.48
2018-07-16T22:00:07.850Z,99208.30
2018-07-16T22:02:36.552Z,99210.20
2018-07-16T22:05:05.303Z,99211.81
2018-07-16T22:07:34.010Z,99210.72
2018-07-16T22:10:02.941Z,99207.20
2018-07-16T22:12:31.692Z,99198.45
2018-07-16T22:15:00.433Z,99203.89
2018-07-16T22:17:29.177Z,99200.06
2018-07-16T22:19:57.876Z,99204.35
2018-07-16T22:22:26.610Z,99207.25
2018-07-16T22:24:55.396Z,99202.41
2018-07-16T22:27:24.096Z,99204.02
2018-07-16T22:29:52.887Z,99205.89
2018-07-16T22:32:21.589Z,99211.54
2018-07-16T22:34:50.335Z,99201.59
2018-07-16T22:37:19.072Z,99205.02
2018-07-16T22:39:47.840Z,99205.62
2018-07-16T22:42:16.593Z,99211.97
2018-07-16T22:44:45.342Z,99204.18
2018-07-16T22:47:14.049Z,99204.51
2018-07-16T22:49:42.773Z,99207.80
2018-07-16T22:52:11.538Z,99207.06
2018-07-16T22:54:40.327Z,99209.52
2018-07-16T22:57:09.062Z,99212.00
2018-07-16T22:59:37.801Z,99207.70
2018-07-16T23:02:06.562Z,99210.47
2018-07-16T23:04:35.334Z,99210.78
2018-07-16T23:07:04.167Z,99215.98
2018-07-16T23:09:32.920Z,99214.66
2018-07-16T23:12:01.668Z,99209.23
2018-07-16T23:14:30.487Z,99212.75
2018-07-16T23:16:59.295Z,99218.72
2018-07-16T23:19:28.101Z,99219.30
2018-07-16T23:21:56.821Z,99218.75
2018-07-16T23:24:25.578Z,99217.15
2018-07-16T23:26:54.330Z,99214.17
2018-07-16T23:29:23.076Z,99213.94
2018-07-16T23:31:51.911Z,99211.50
2018-07-16T23:34:20.682Z,99210.41
2018-07-16T23:36:49.406Z,99204.74
2018-07-16T23:39:18.109Z,99200.39
2018-07-16T23:41:46.834Z,99204.48
2018-07-16T23:44:15.593Z,99204.22
2018-07-16T23:46:44.316Z,99203.42
2018-07-16T23:49:13.055Z,99208.83
2018-07-16T23:51:41.785Z,99206.39
2018-07-16T23:54:10.596Z,99197.74
2018-07-16T23:56:39.366Z,99192.31
2018-07-16T23:59:08.135Z,99197.20
